createdAt,value
2018-11-05T00:00:46.722Z,6.50
2018-11-05T00:03:18.430Z,6.50
2018-11-05T00:05:48.202Z,6.60
2018-11-05T00:08:17.211Z,6.60
2018-11-05T00:10:46.283Z,6.60
2018-11-05T00:13:15.277Z,6.60
2018-11-05T00:15:47.882Z,6.60
2018-11-05T00:18:16.888Z,6.70
2018-11-05T00:20:45.951Z,6.70
2018-11-05T00:23:16.312Z,6.70
2018-11-05T00:25:45.362Z,6.70
2018-11-05T00:28:14.386Z,6.70
2018-11-05T00:30:43.361Z,6.70
2018-11-05T00:33:12.363Z,6.70
2018-11-05T00:35:41.398Z,6.80
2018-11-05T00:38:10.717Z,6.80
2018-11-05T00:40:39.700Z,6.80
2018-11-05T00:43:08.661Z,6.90
2018-11-05T00:45:37.689Z,6.90
2018-11-05T00:48:06.659Z,6.90
2018-11-05T00:50:35.660Z,6.90
2018-11-05T00:53:04.752Z,7.00
2018-11-05T00:55:33.682Z,7.00
2018-11-05T00:58:02.687Z,7.00
2018-11-05T01:00:31.641Z,7.00
2018-11-05T01:03:00.719Z,7.00
2018-11-05T01:05:29.642Z,7.10
2018-11-05T01:07:58.627Z,7.10
2018-11-05T01:10:27.574Z,7.10
2018-11-05T01:12:56.600Z,7.20
2018-11-05T01:15:25.545Z,7.20
2018-11-05T01:17:54.528Z,7.20
2018-11-05T01:20:23.499Z,7.20
2018-11-05T01:22:52.504Z,7.20
2018-11-05T01:25:21.474Z,7.20
2018-11-05T01:27:50.399Z,7.30
2018-11-05T01:30:19.405Z,7.30
2018-11-05T01:32:48.342Z,7.30
2018-11-05T01:35:17.328Z,7.30
2018-11-05T01:37:46.369Z,7.30
2018-11-05T01:40:15.991Z,7.40
2018-11-05T01:42:48.200Z,7.40
2018-11-05T01:45:17.198Z,7.40
2018-11-05T01:47:52.679Z,7.40
2018-11-05T01:50:21.748Z,7.40
2018-11-05T01:52:50.746Z,7.50
2018-11-05T01:55:19.699Z,7.50
2018-11-05T01:57:48.705Z,7.50
2018-11-05T02:00:17.915Z,7.50
2018-11-05T02:02:47.591Z,7.50
2018-11-05T02:05:16.639Z,7.50
2018-11-05T02:07:46.159Z,7.60
2018-11-05T02:10:16.474Z,7.60
2018-11-05T02:12:45.436Z,7.60
2018-11-05T02:15:14.537Z,7.60
2018-11-05T02:17:44.619Z,7.60
2018-11-05T02:20:14.515Z,7.60
2018-11-05T02:22:43.520Z,7.60
2018-11-05T02:25:13.343Z,7.70
2018-11-05T02:27:42.712Z,7.60
2018-11-05T02:30:15.133Z,7.70
2018-11-05T02:32:44.092Z,7.70
2018-11-05T02:35:14.045Z,7.70
2018-11-05T02:37:43.700Z,7.70
2018-11-05T02:40:14.899Z,7.70
2018-11-05T02:42:44.452Z,7.80
2018-11-05T02:45:14.582Z,7.80
2018-11-05T02:47:43.617Z,7.70
2018-11-05T02:50:13.516Z,7.70
2018-11-05T02:52:43.534Z,7.80
2018-11-05T02:55:12.522Z,7.80
2018-11-05T02:57:41.553Z,7.80
2018-11-05T03:00:13.233Z,7.80
2018-11-05T03:02:42.582Z,7.80
2018-11-05T03:05:15.678Z,7.80
2018-11-05T03:07:45.425Z,7.80
2018-11-05T03:10:14.701Z,7.80
2018-11-05T03:12:44.339Z,7.80
2018-11-05T03:15:14.645Z,7.90
2018-11-05T03:17:43.598Z,7.90
2018-11-05T03:20:13.455Z,7.90
2018-11-05T03:22:42.984Z,7.90
2018-11-05T03:25:12.005Z,7.90
2018-11-05T03:27:41.416Z,7.90
2018-11-05T03:30:13.524Z,7.90
2018-11-05T03:32:42.670Z,7.90
2018-11-05T03:35:12.585Z,7.90
2018-11-05T03:37:42.451Z,7.90
2018-11-05T03:40:12.315Z,7.90
2018-11-05T03:42:41.970Z,7.90
2018-11-05T03:45:12.378Z,7.90
2018-11-05T03:47:41.328Z,7.90
2018-11-05T03:50:12.543Z,7.90
2018-11-05T03:52:41.850Z,7.90
2018-11-05T03:55:10.811Z,8.00
2018-11-05T03:57:39.922Z,8.00
2018-11-05T04:00:10.163Z,8.00
2018-11-05T04:02:39.167Z,7.90
2018-11-05T04:05:08.523Z,7.90
2018-11-05T04:07:37.891Z,7.90
2018-11-05T04:10:07.702Z,8.00
2018-11-05T04:12:36.659Z,8.00
2018-11-05T04:15:05.926Z,8.00
2018-11-05T04:17:34.964Z,8.00
2018-11-05T04:20:04.186Z,8.00
2018-11-05T04:22:33.195Z,8.00
2018-11-05T04:25:02.139Z,8.00
2018-11-05T04:27:31.257Z,8.00
2018-11-05T04:30:00.264Z,8.00
2018-11-05T04:32:29.287Z,8.00
2018-11-05T04:34:58.236Z,8.00
2018-11-05T04:37:27.263Z,8.00
2018-11-05T04:39:56.237Z,8.00
2018-11-05T04:42:25.256Z,8.00
2018-11-05T04:44:54.207Z,8.00
2018-11-05T04:47:23.219Z,8.00
2018-11-05T04:49:52.227Z,8.10
2018-11-05T04:52:21.216Z,8.00
2018-11-05T04:54:50.423Z,8.00
2018-11-05T04:57:19.406Z,8.00
2018-11-05T04:59:48.335Z,8.10
2018-11-05T05:02:17.347Z,8.00
2018-11-05T05:04:46.321Z,8.10
2018-11-05T05:07:15.308Z,8.10
2018-11-05T05:09:44.516Z,8.10
2018-11-05T05:12:13.505Z,8.10
2018-11-05T05:14:42.896Z,8.10
2018-11-05T05:17:11.943Z,8.10
2018-11-05T05:19:41.021Z,8.10
2018-11-05T05:22:09.968Z,8.10
2018-11-05T05:24:38.925Z,8.10
2018-11-05T05:27:08.050Z,8.10
2018-11-05T05:29:37.078Z,8.10
2018-11-05T05:32:06.177Z,8.10
2018-11-05T05:34:35.159Z,8.10
2018-11-05T05:37:04.164Z,8.10
2018-11-05T05:39:33.162Z,8.20
2018-11-05T05:42:02.194Z,8.20
2018-11-05T05:44:31.177Z,8.20
2018-11-05T05:47:00.108Z,8.20
2018-11-05T05:49:29.094Z,8.20
2018-11-05T05:51:58.097Z,8.20
2018-11-05T05:54:27.072Z,8.20
2018-11-05T05:56:56.056Z,8.20
2018-11-05T05:59:25.085Z,8.20
2018-11-05T06:01:54.111Z,8.20
2018-11-05T06:04:23.107Z,8.20
2018-11-05T06:06:52.242Z,8.20
2018-11-05T06:09:21.155Z,8.20
2018-11-05T06:11:50.144Z,8.20
2018-11-05T06:14:19.150Z,8.30
2018-11-05T06:16:48.088Z,8.20
2018-11-05T06:19:17.083Z,8.20
2018-11-05T06:21:46.076Z,8.20
2018-11-05T06:24:15.094Z,8.30
2018-11-05T06:26:44.048Z,8.30
2018-11-05T06:29:13.060Z,8.30
2018-11-05T06:31:42.054Z,8.30
2018-11-05T06:34:11.031Z,8.30
2018-11-05T06:36:40.075Z,8.30
2018-11-05T06:39:11.361Z,8.30
2018-11-05T06:41:40.615Z,8.30
2018-11-05T06:44:09.638Z,8.40
2018-11-05T06:46:38.659Z,8.40
2018-11-05T06:49:07.852Z,8.40
2018-11-05T06:51:36.852Z,8.40
2018-11-05T06:54:05.994Z,8.40
2018-11-05T06:56:35.104Z,8.40
2018-11-05T06:59:04.189Z,8.40
2018-11-05T07:01:33.180Z,8.40
2018-11-05T07:04:02.168Z,8.40
2018-11-05T07:06:31.145Z,8.50
2018-11-05T07:09:00.099Z,8.50
2018-11-05T07:11:29.133Z,8.50
2018-11-05T07:13:58.095Z,8.50
2018-11-05T07:16:27.083Z,8.50
2018-11-05T07:18:56.323Z,8.50
2018-11-05T07:21:25.015Z,8.50
2018-11-05T07:24:07.260Z,8.60
2018-11-05T07:26:36.409Z,8.60
2018-11-05T07:29:05.464Z,8.60
2018-11-05T07:31:34.485Z,8.60
2018-11-05T07:34:03.724Z,8.60
2018-11-05T07:36:32.616Z,8.60
2018-11-05T07:39:01.760Z,8.60
2018-11-05T07:41:30.793Z,8.60
2018-11-05T07:44:01.849Z,8.70
2018-11-05T07:46:30.961Z,8.70
2018-11-05T07:48:59.975Z,8.70
2018-11-05T07:51:29.048Z,8.70
2018-11-05T07:53:58.135Z,8.70
2018-11-05T07:56:27.211Z,8.80
2018-11-05T07:58:56.240Z,8.80
2018-11-05T08:01:25.298Z,8.80
2018-11-05T08:03:54.376Z,8.90
2018-11-05T08:06:23.399Z,8.90
2018-11-05T08:08:52.529Z,8.90
2018-11-05T08:11:21.566Z,8.90
2018-11-05T08:13:50.612Z,9.00
2018-11-05T08:16:19.636Z,9.00
2018-11-05T08:18:48.678Z,9.00
2018-11-05T08:21:17.784Z,9.10
2018-11-05T08:23:46.833Z,9.10
2018-11-05T08:26:15.986Z,9.20
2018-11-05T08:28:44.964Z,9.20
2018-11-05T08:31:14.150Z,9.20
2018-11-05T08:33:43.230Z,9.20
2018-11-05T08:36:12.321Z,9.30
2018-11-05T08:38:41.311Z,9.30
2018-11-05T08:41:10.405Z,9.30
2018-11-05T08:43:39.465Z,9.30
2018-11-05T08:46:08.544Z,9.30
2018-11-05T08:48:37.614Z,9.40
2018-11-05T08:51:06.822Z,9.40
2018-11-05T08:53:35.768Z,9.40
2018-11-05T08:56:05.609Z,9.40
2018-11-05T08:58:34.697Z,9.50
2018-11-05T09:01:09.284Z,9.50
2018-11-05T09:03:38.361Z,9.50
2018-11-05T09:06:07.863Z,9.60
2018-11-05T09:08:36.963Z,9.60
2018-11-05T09:11:06.553Z,9.70
2018-11-05T09:13:35.104Z,9.70
2018-11-05T09:16:04.383Z,9.70
2018-11-05T09:18:33.508Z,9.70
2018-11-05T09:21:02.689Z,9.80
2018-11-05T09:23:31.854Z,9.70
2018-11-05T09:26:00.905Z,9.70
2018-11-05T09:28:30.117Z,9.70
2018-11-05T09:30:59.220Z,9.70
2018-11-05T09:33:28.295Z,9.70
2018-11-05T09:35:57.314Z,9.70
2018-11-05T09:38:26.438Z,9.80
2018-11-05T09:40:55.448Z,9.80
2018-11-05T09:43:24.536Z,9.90
2018-11-05T09:45:53.555Z,10.00
2018-11-05T09:48:22.600Z,10.10
2018-11-05T09:50:51.629Z,10.20
2018-11-05T09:53:20.697Z,10.20
2018-11-05T09:55:49.757Z,10.30
2018-11-05T09:58:18.868Z,10.40
2018-11-05T10:00:48.067Z,10.40
2018-11-05T10:03:18.300Z,10.50
2018-11-05T10:05:47.309Z,10.50
2018-11-05T10:08:17.206Z,10.60
2018-11-05T10:10:46.369Z,10.70
2018-11-05T10:13:15.377Z,10.80
2018-11-05T10:15:44.389Z,10.90
2018-11-05T10:18:13.608Z,10.90
2018-11-05T10:20:42.650Z,11.00
2018-11-05T10:23:11.720Z,11.00
2018-11-05T10:25:40.813Z,11.00
2018-11-05T10:28:10.009Z,11.00
2018-11-05T10:31:48.416Z,11.10
2018-11-05T10:34:17.468Z,11.10
2018-11-05T10:36:46.559Z,11.10
2018-11-05T10:39:16.118Z,11.10
2018-11-05T10:41:45.196Z,11.20
2018-11-05T10:44:14.290Z,11.20
2018-11-05T10:46:43.460Z,11.20
2018-11-05T10:49:12.574Z,11.30
2018-11-05T10:51:41.699Z,11.30
2018-11-05T10:54:10.864Z,11.40
2018-11-05T10:56:40.266Z,11.40
2018-11-05T10:59:09.764Z,11.40
2018-11-05T11:01:44.125Z,11.40
2018-11-05T11:04:18.615Z,11.30
2018-11-05T11:06:47.640Z,11.40
2018-11-05T11:09:16.944Z,11.40
2018-11-05T11:11:46.840Z,11.40
2018-11-05T11:14:15.891Z,11.50
2018-11-05T11:16:44.977Z,11.40
2018-11-05T11:19:14.053Z,11.50
2018-11-05T11:21:43.094Z,11.40
2018-11-05T11:24:12.123Z,11.40
2018-11-05T11:26:41.182Z,11.40
2018-11-05T11:29:10.274Z,11.40
2018-11-05T11:31:39.316Z,11.30
2018-11-05T11:34:08.396Z,11.30
2018-11-05T11:36:38.093Z,11.30
2018-11-05T11:39:09.874Z,11.20
2018-11-05T11:41:38.924Z,11.20
2018-11-05T11:44:08.503Z,11.20
2018-11-05T11:46:38.016Z,11.20
2018-11-05T11:49:08.392Z,11.20
2018-11-05T11:51:37.460Z,11.20
2018-11-05T11:54:06.656Z,11.20
2018-11-05T11:56:35.680Z,11.20
2018-11-05T11:59:04.868Z,11.20
2018-11-05T12:01:41.269Z,11.20
2018-11-05T12:04:10.295Z,11.20
2018-11-05T12:06:39.723Z,11.20
2018-11-05T12:09:09.392Z,11.20
2018-11-05T12:11:38.426Z,11.20
2018-11-05T12:14:07.531Z,11.10
2018-11-05T12:16:36.491Z,11.10
2018-11-05T12:19:05.766Z,11.10
2018-11-05T12:21:34.815Z,11.10
2018-11-05T12:24:04.011Z,11.10
2018-11-05T12:26:33.844Z,11.10
2018-11-05T12:29:02.883Z,11.20
2018-11-05T12:31:31.975Z,11.20
2018-11-05T12:34:01.054Z,11.20
2018-11-05T12:36:30.106Z,11.20
2018-11-05T12:38:59.872Z,11.30
2018-11-05T12:41:28.935Z,11.30
2018-11-05T12:43:58.072Z,11.30
2018-11-05T12:46:27.206Z,11.30
2018-11-05T12:48:56.244Z,11.30
2018-11-05T12:51:25.304Z,11.30
2018-11-05T12:53:54.347Z,11.30
2018-11-05T12:56:23.618Z,11.30
2018-11-05T12:58:52.646Z,11.30
2018-11-05T13:01:21.652Z,11.30
2018-11-05T13:03:50.709Z,11.30
2018-11-05T13:06:19.759Z,11.30
2018-11-05T13:08:48.772Z,11.30
2018-11-05T13:11:17.838Z,11.30
2018-11-05T13:13:46.916Z,11.30
2018-11-05T13:16:15.937Z,11.30
2018-11-05T13:18:45.003Z,11.20
2018-11-05T13:21:14.069Z,11.20
2018-11-05T13:23:46.185Z,11.20
2018-11-05T13:26:16.135Z,11.20
2018-11-05T13:28:46.144Z,11.20
2018-11-05T13:31:17.157Z,11.20
2018-11-05T13:33:46.210Z,11.20
2018-11-05T13:36:15.384Z,11.20
2018-11-05T13:38:44.580Z,11.10
2018-11-05T13:41:13.781Z,11.10
2018-11-05T13:43:42.987Z,11.10
2018-11-05T13:46:12.376Z,11.10
2018-11-05T13:48:41.744Z,11.10
2018-11-05T13:51:10.300Z,11.10
2018-11-05T13:53:40.423Z,11.10
2018-11-05T13:56:09.673Z,11.10
2018-11-05T13:58:38.857Z,11.00
2018-11-05T14:01:08.113Z,11.00
2018-11-05T14:03:37.128Z,11.10
2018-11-05T14:06:06.205Z,11.00
2018-11-05T14:08:35.284Z,11.00
2018-11-05T14:11:04.569Z,11.00
2018-11-05T14:13:33.544Z,11.00
2018-11-05T14:16:02.632Z,11.00
2018-11-05T14:18:31.636Z,11.00
2018-11-05T14:21:00.735Z,11.00
2018-11-05T14:23:29.769Z,11.00
2018-11-05T14:25:58.848Z,11.00
2018-11-05T14:28:28.358Z,11.00
2018-11-05T14:30:57.200Z,11.00
2018-11-05T14:33:26.256Z,10.90
2018-11-05T14:35:55.388Z,10.90
2018-11-05T14:38:24.447Z,10.90
2018-11-05T14:40:53.547Z,10.80
2018-11-05T14:43:22.571Z,10.90
2018-11-05T14:45:51.608Z,10.80
2018-11-05T14:48:20.697Z,10.80
2018-11-05T14:50:49.865Z,10.80
2018-11-05T14:53:18.779Z,10.80
2018-11-05T14:55:47.820Z,10.80
2018-11-05T14:58:16.875Z,10.80
2018-11-05T15:00:45.912Z,10.70
2018-11-05T15:03:14.950Z,10.80
2018-11-05T15:05:43.972Z,10.80
2018-11-05T15:08:13.071Z,10.80
2018-11-05T15:10:42.155Z,10.80
2018-11-05T15:13:11.185Z,10.80
2018-11-05T15:15:40.353Z,10.80
2018-11-05T15:18:09.426Z,10.80
2018-11-05T15:20:38.510Z,10.80
2018-11-05T15:23:07.612Z,10.80
2018-11-05T15:25:36.733Z,10.80
2018-11-05T15:28:06.240Z,10.80
2018-11-05T15:30:42.063Z,10.80
2018-11-05T15:33:11.184Z,10.80
2018-11-05T15:35:40.216Z,10.80
2018-11-05T15:38:09.266Z,10.80
2018-11-05T15:40:38.280Z,10.70
2018-11-05T15:43:07.341Z,10.70
2018-11-05T15:45:36.388Z,10.70
2018-11-05T15:48:06.134Z,10.70
2018-11-05T15:50:35.316Z,10.70
2018-11-05T15:53:04.607Z,10.70
2018-11-05T15:55:33.542Z,10.70
2018-11-05T15:58:02.588Z,10.70
2018-11-05T16:00:31.632Z,10.70
2018-11-05T16:03:01.656Z,10.70
2018-11-05T16:05:30.705Z,10.70
2018-11-05T16:07:59.793Z,10.70
2018-11-05T16:10:28.851Z,10.70
2018-11-05T16:12:57.895Z,10.70
2018-11-05T16:15:26.965Z,10.70
2018-11-05T16:17:55.989Z,10.60
2018-11-05T16:20:24.977Z,10.70
2018-11-05T16:22:54.021Z,10.70
2018-11-05T16:25:23.041Z,10.70
2018-11-05T16:27:52.141Z,10.70
2018-11-05T16:30:21.988Z,10.70
2018-11-05T16:32:51.640Z,10.70
2018-11-05T16:35:20.666Z,10.70
2018-11-05T16:37:49.853Z,10.70
2018-11-05T16:40:19.599Z,10.70
2018-11-05T16:42:49.981Z,10.70
2018-11-05T16:45:19.029Z,10.70
2018-11-05T16:47:48.480Z,10.70
2018-11-05T16:50:20.048Z,10.70
2018-11-05T16:52:49.127Z,10.70
2018-11-05T16:55:18.183Z,10.70
2018-11-05T16:57:47.295Z,10.60
2018-11-05T17:00:16.464Z,10.70
2018-11-05T17:02:46.168Z,10.70
2018-11-05T17:05:15.083Z,10.70
2018-11-05T17:07:44.266Z,10.70
2018-11-05T17:10:19.874Z,10.70
2018-11-05T17:12:48.947Z,10.70
2018-11-05T17:15:18.053Z,10.70
2018-11-05T17:17:47.140Z,10.70
2018-11-05T17:20:18.384Z,10.70
2018-11-05T17:22:47.438Z,10.70
2018-11-05T17:25:16.881Z,10.70
2018-11-05T17:27:46.769Z,10.70
2018-11-05T17:30:18.136Z,10.70
2018-11-05T17:32:47.235Z,10.60
2018-11-05T17:35:16.632Z,10.70
2018-11-05T17:37:51.294Z,10.70
2018-11-05T17:40:21.708Z,10.60
2018-11-05T17:42:50.794Z,10.70
2018-11-05T17:45:20.396Z,10.70
2018-11-05T17:47:49.669Z,10.70
2018-11-05T17:50:20.140Z,10.60
2018-11-05T17:52:49.232Z,10.70
2018-11-05T17:55:18.311Z,10.70
2018-11-05T17:57:48.285Z,10.70
2018-11-05T18:00:21.590Z,10.70
2018-11-05T18:02:50.755Z,10.70
2018-11-05T18:05:20.176Z,10.70
2018-11-05T18:07:49.202Z,10.60
2018-11-05T18:10:18.260Z,10.70
2018-11-05T18:12:47.324Z,10.70
2018-11-05T18:15:16.407Z,10.70
2018-11-05T18:17:46.255Z,10.70
2018-11-05T18:20:16.086Z,10.70
2018-11-05T18:22:45.173Z,10.70
2018-11-05T18:25:15.597Z,10.70
2018-11-05T18:27:44.938Z,10.70
2018-11-05T18:30:14.651Z,10.70
2018-11-05T18:32:43.732Z,10.70
2018-11-05T18:35:13.736Z,10.70
2018-11-05T18:37:44.237Z,10.70
2018-11-05T18:40:14.404Z,10.70
2018-11-05T18:42:43.922Z,10.70
2018-11-05T18:45:13.189Z,10.70
2018-11-05T18:47:42.298Z,10.70
2018-11-05T18:50:13.703Z,10.70
2018-11-05T18:52:43.160Z,10.70
2018-11-05T18:55:13.513Z,10.70
2018-11-05T18:57:42.638Z,10.70
2018-11-05T19:00:20.543Z,10.70
2018-11-05T19:02:50.262Z,10.70
2018-11-05T19:05:19.702Z,10.70
2018-11-05T19:07:48.957Z,10.70
2018-11-05T19:10:18.065Z,10.70
2018-11-05T19:12:47.584Z,10.70
2018-11-05T19:15:16.972Z,10.70
2018-11-05T19:17:46.882Z,10.70
2018-11-05T19:20:16.098Z,10.70
2018-11-05T19:22:45.495Z,10.70
2018-11-05T19:25:15.153Z,10.70
2018-11-05T19:27:44.692Z,10.70
2018-11-05T19:30:23.875Z,10.70
2018-11-05T19:32:53.133Z,10.70
2018-11-05T19:35:22.195Z,10.70
2018-11-05T19:37:51.206Z,10.70
2018-11-05T19:40:20.616Z,10.70
2018-11-05T19:42:50.128Z,10.70
2018-11-05T19:45:20.572Z,10.60
2018-11-05T19:47:49.659Z,10.70
2018-11-05T19:50:20.869Z,10.70
2018-11-05T19:52:50.645Z,10.70
2018-11-05T19:55:20.063Z,10.70
2018-11-05T19:57:49.817Z,10.70
2018-11-05T20:00:22.526Z,10.70
2018-11-05T20:02:51.690Z,10.70
2018-11-05T20:05:20.844Z,10.70
2018-11-05T20:07:50.618Z,10.60
2018-11-05T20:10:19.825Z,10.70
2018-11-05T20:12:48.984Z,10.60
2018-11-05T20:15:18.252Z,10.60
2018-11-05T20:17:48.241Z,10.60
2018-11-05T20:20:18.765Z,10.60
2018-11-05T20:22:47.897Z,10.60
2018-11-05T20:25:16.894Z,10.60
2018-11-05T20:27:45.992Z,10.60
2018-11-05T20:30:18.381Z,10.60
2018-11-05T20:32:48.815Z,10.60
2018-11-05T20:35:17.409Z,10.60
2018-11-05T20:37:46.488Z,10.60
2018-11-05T20:40:17.055Z,10.60
2018-11-05T20:42:47.197Z,10.60
2018-11-05T20:45:17.094Z,10.60
2018-11-05T20:47:46.183Z,10.60
2018-11-05T20:50:15.927Z,10.60
2018-11-05T20:52:44.992Z,10.60
2018-11-05T20:55:15.143Z,10.60
2018-11-05T20:57:44.354Z,10.60
2018-11-05T21:00:14.878Z,10.60
2018-11-05T21:02:44.261Z,10.60
2018-11-05T21:05:13.347Z,10.60
2018-11-05T21:07:43.133Z,10.60
2018-11-05T21:10:13.185Z,10.60
2018-11-05T21:12:43.028Z,10.60
2018-11-05T21:15:17.283Z,10.60
2018-11-05T21:17:47.293Z,10.50
2018-11-05T21:20:16.615Z,10.60
2018-11-05T21:22:46.293Z,10.60
2018-11-05T21:25:15.135Z,10.60
2018-11-05T21:27:44.564Z,10.50
2018-11-05T21:30:15.805Z,10.50
2018-11-05T21:32:44.870Z,10.50
2018-11-05T21:35:15.265Z,10.50
2018-11-05T21:37:44.373Z,10.50
2018-11-05T21:40:14.701Z,10.50
2018-11-05T21:42:43.850Z,10.50
2018-11-05T21:45:13.972Z,10.50
2018-11-05T21:47:43.670Z,10.50
2018-11-05T21:50:14.456Z,10.50
2018-11-05T21:52:44.100Z,10.50
2018-11-05T21:55:13.237Z,10.50
2018-11-05T21:57:43.639Z,10.50
2018-11-05T22:00:14.462Z,10.50
2018-11-05T22:02:48.956Z,10.50
2018-11-05T22:05:17.990Z,10.50
2018-11-05T22:07:47.833Z,10.50
2018-11-05T22:10:16.905Z,10.50
2018-11-05T22:12:46.530Z,10.50
2018-11-05T22:15:15.641Z,10.50
2018-11-05T22:17:44.735Z,10.50
2018-11-05T22:20:13.855Z,10.50
2018-11-05T22:22:43.093Z,10.40
2018-11-05T22:25:12.382Z,10.40
2018-11-05T22:27:41.437Z,10.50
2018-11-05T22:30:11.514Z,10.50
2018-11-05T22:32:40.516Z,10.50
2018-11-05T22:35:09.612Z,10.40
2018-11-05T22:37:38.628Z,10.40
2018-11-05T22:40:10.517Z,10.40
2018-11-05T22:42:39.537Z,10.40
2018-11-05T22:45:09.837Z,10.40
2018-11-05T22:47:38.910Z,10.40
2018-11-05T22:50:08.639Z,10.40
2018-11-05T22:52:38.059Z,10.40
2018-11-05T22:55:07.466Z,10.40
2018-11-05T22:57:36.554Z,10.40
2018-11-05T23:00:14.314Z,10.30
2018-11-05T23:02:47.597Z,10.30
2018-11-05T23:05:16.665Z,10.30
2018-11-05T23:07:45.718Z,10.30
2018-11-05T23:10:15.776Z,10.30
2018-11-05T23:12:44.884Z,10.30
2018-11-05T23:15:14.280Z,10.30
2018-11-05T23:17:55.477Z,10.30
2018-11-05T23:20:57.441Z,10.30
2018-11-05T23:29:51.960Z,10.30
2018-11-05T23:32:21.395Z,10.30
2018-11-05T23:34:50.792Z,10.30
2018-11-05T23:37:19.846Z,10.20
2018-11-05T23:39:48.896Z,10.30
2018-11-05T23:42:18.052Z,10.20
2018-11-05T23:44:47.177Z,10.20
2018-11-05T23:47:16.352Z,10.20
2018-11-05T23:49:45.441Z,10.20
2018-11-05T23:52:14.508Z,10.20
2018-11-05T23:54:43.573Z,10.20
2018-11-05T23:57:12.755Z,10.20
2018-11-05T23:59:41.747Z,10.20
